Station: Condobolin Airport  

  Atmospheric Gas Attenuation - ITU Rec 676-11   ----------------- dB/100km -----------------
Date Time Temp RH % AH g/m3 Dew Point Wind Direction Speed kph Gust kph Barometer mB Rainfall Since 9am 24GHz 47GHz 76GHz 122GHz 134GHz 241GHz
08/05 12:30 16 60 8.17 8.2 22 32 1024.2 0 18.6 25.0 37.5 98.2 91.0 312.8
08/05 12:20 14.8 61 7.73 7.4 19 20 1024.4 0 17.7 24.6 36.4 95.2 86.8 297.9
08/05 12:10 15.7 58 7.76 7.5 24 32 1024.6 0 17.7 24.5 36.1 94.4 86.2 295.9
08/05 12:00 15.3 59 7.7 7.3 24 35 1024.9 0 17.6 24.5 36.1 94.3 85.9 294.8
08/05 11:50 15.8 62 8.35 8.5 20 26 1024.9 0 18.9 25.4 38.3 100.4 93.6 321.9
08/05 11:40 14.9 63 8.03 7.9 24 28 1025 0 18.3 25.1 37.5 98.2 90.6 311.1
08/05 11:30 14.2 63 7.69 7.3 20 32 1025.4 0 17.6 24.8 36.5 95.6 87.0 298.6
08/05 11:20 13.7 67 7.93 7.7 22 26 1025.5 0 18.2 25.3 37.7 98.7 90.7 311.4
08/05 11:10 13.3 67 7.74 7.3 22 28 1025.6 0 17.8 25.1 37.2 97.2 88.7 304.3
08/05 11:00 12.7 69 7.68 7.2 20 28 1025.7 0 17.7 25.2 37.2 97.3 88.6 303.9
08/05 10:50 12.8 69 7.73 7.3 19 20 1025.8 0 17.8 25.2 37.4 97.7 89.2 305.8
08/05 10:40 12.1 69 7.4 6.6 20 26 1025.9 0 17.1 24.9 36.4 95.1 85.6 293.4
08/05 10:30 12 68 7.25 6.3 20 28 1026 0 16.8 24.7 35.8 93.7 83.8 287.0
08/05 10:20 11.9 70 7.41 6.6 19 20 1026 0 17.1 25.0 36.5 95.5 86.0 294.6
08/05 10:10 11.8 69 7.26 6.3 24 26 1026.1 0 16.8 24.8 36.0 94.0 84.2 288.2
08/05 10:00 11.6 69 7.17 6.1 19 24 1026 0 16.6 24.7 35.7 93.3 83.2 284.8
08/05 09:50 11.5 70 7.23 6.2 17 19 1026 0 16.8 24.8 36.0 94.0 84.1 287.9
08/05 09:40 11.2 70 7.1 5.9 15 17 1026 0 16.5 24.7 35.6 93.0 82.7 283.0
08/05 09:30 11.4 69 7.08 5.9 19 22 1026.2 0 16.4 24.6 35.4 92.6 82.2 281.4
08/05 09:20 10.8 71 7.02 5.8 20 22 1026.1 0 16.3 24.7 35.5 92.7 82.1 280.8
08/05 09:10 10.4 74 7.13 6 17 20 1026.1 0 16.6 25.0 36.1 94.3 84.0 287.3
08/05 09:00 9.6 73 6.69 5 19 26 1026.1 0 15.7 24.5 34.7 90.5 79.0 269.8
08/05 08:50 9.4 75 6.79 5.2 20 22 1026 0.2 15.9 24.7 35.2 91.8 80.5 275.1
08/05 08:40 9.1 75 6.66 4.9 19 22 1025.9 0.2 15.6 24.6 34.8 90.8 79.1 270.1
08/05 08:30 8.7 78 6.75 5.1 13 22 1025.9 0.2 15.9 24.8 35.3 92.2 80.7 275.6
08/05 08:20 8 78 6.45 4.4 9 11 1025.8 0.2 15.2 24.5 34.4 89.8 77.4 264.0
08/05 08:10 7.5 77 6.17 3.7 13 15 1025.8 0.2 14.7 24.2 33.5 87.3 74.2 252.7
08/05 08:00 7.1 78 6.09 3.5 11 15 1025.6 0.2 14.5 24.2 33.3 86.9 73.5 250.2
08/05 07:50 6.8 79 6.05 3.4 13 15 1025.3 0.2 14.4 24.2 33.3 86.8 73.2 249.2
08/05 07:40 6.4 80 5.96 3.2 13 15 1025.2 0.2 14.2 24.1 33.1 86.2 72.4 246.3
08/05 07:30 5.9 82 5.92 3.1 9 11 1025.3 0.2 14.2 24.2 33.1 86.4 72.3 246.0
08/05 07:20 5.5 83 5.83 2.8 11 13 1025.1 0.2 14.0 24.2 32.9 85.8 71.5 242.9
08/05 07:10 5.1 84 5.75 2.6 7 9 1025 0.2 13.8 24.1 32.8 85.4 70.8 240.4
08/05 07:00 4.9 84 5.67 2.4 11 13 1025 0.2 13.7 24.1 32.5 84.7 69.9 237.2
08/05 06:50 4.9 83 5.61 2.3 9 13 1025 0.2 13.6 24.0 32.3 84.1 69.1 234.4
08/05 06:40 4.9 83 5.61 2.3 9 13 1025 0.2 13.6 24.0 32.3 84.1 69.1 234.4
08/05 06:30 5 82 5.58 2.2 9 13 1025.1 0.2 13.5 23.9 32.1 83.6 68.6 232.7
08/05 06:20 5.1 83 5.68 2.5 11 11 1024.9 0.2 13.7 24.0 32.5 84.6 69.8 237.1
08/05 06:10 4.9 84 5.67 2.4 11 11 1024.9 0.2 13.7 24.1 32.5 84.7 69.9 237.2
08/05 06:00 4.6 86 5.7 2.5 11 15 1024.9 0.2 13.8 24.2 32.8 85.4 70.6 239.5
08/05 05:50 4.6 85 5.63 2.3 11 13 1024.8 0.2 13.6 24.1 32.5 84.6 69.6 236.2
08/05 05:40 4.8 85 5.7 2.5 9 9 1024.8 0.2 13.7 24.1 32.7 85.1 70.4 238.9
08/05 05:30 4.9 84 5.67 2.4 9 11 1024.9 0.2 13.7 24.1 32.5 84.7 69.9 237.2
08/05 05:20 5.3 81 5.62 2.3 11 13 1024.7 0.2 13.6 23.9 32.1 83.7 68.9 233.6
08/05 05:10 5.7 79 5.63 2.4 9 11 1024.8 0.2 13.6 23.8 32.0 83.4 68.6 232.9
08/05 05:00 5.7 79 5.63 2.4 13 17 1024.8 0.2 13.6 23.8 32.0 83.4 68.6 232.9
08/05 04:50 5.7 79 5.63 2.4 13 15 1024.6 0.2 13.6 23.8 32.0 83.4 68.6 232.9
08/05 04:40 5.7 79 5.63 2.4 15 19 1024.6 0.2 13.6 23.8 32.0 83.4 68.6 232.9
08/05 04:30 5.7 79 5.63 2.4 13 17 1024.6 0.2 13.6 23.8 32.0 83.4 68.6 232.9
08/05 04:20 5.7 78 5.55 2.2 13 15 1024.5 0.2 13.4 23.6 31.7 82.5 67.6 229.2
08/05 04:10 5.8 78 5.59 2.3 13 15 1024.4 0.2 13.5 23.7 31.8 82.8 68.0 230.7
08/05 04:00 5.6 78 5.52 2.1 11 15 1024.5 0.2 13.3 23.6 31.6 82.3 67.3 228.1
08/05 03:50 5.9 77 5.56 2.2 13 15 1024.4 0.2 13.4 23.6 31.6 82.4 67.5 229.0
08/05 03:40 5.9 77 5.56 2.2 13 15 1024.3 0.2 13.4 23.6 31.6 82.4 67.5 229.0
08/05 03:30 5.8 78 5.59 2.3 13 15 1024.4 0.2 13.5 23.7 31.8 82.8 68.0 230.7
08/05 03:20 6.1 77 5.63 2.4 13 17 1024.3 0.2 13.5 23.6 31.8 82.9 68.3 231.7
08/05 03:10 5.8 78 5.59 2.3 11 13 1024.5 0.2 13.5 23.7 31.8 82.8 68.0 230.7
08/05 03:00 5.9 78 5.63 2.4 11 15 1024.8 0.2 13.6 23.7 31.9 83.2 68.5 232.4
08/05 02:50 6.1 78 5.7 2.6 11 13 1024.8 0.2 13.7 23.8 32.1 83.7 69.2 235.0
08/05 02:40 5.7 78 5.55 2.2 13 13 1024.7 0.2 13.4 23.6 31.7 82.5 67.6 229.2
08/05 02:30 5.8 77 5.52 2.1 13 15 1024.9 0.2 13.3 23.6 31.5 82.1 67.1 227.6
08/05 02:20 5.6 78 5.52 2.1 13 15 1024.9 0.2 13.3 23.6 31.6 82.3 67.3 228.2
08/05 02:10 5.9 77 5.56 2.2 13 15 1025 0.2 13.4 23.6 31.7 82.5 67.6 229.2
08/05 02:00 5.7 78 5.55 2.2 11 17 1025.2 0.2 13.4 23.7 31.7 82.6 67.6 229.3
08/05 01:50 6 74 5.37 1.7 11 13 1025.1 0.2 13.0 23.3 30.9 80.4 65.0 220.2
08/05 01:40 5.7 75 5.34 1.6 9 11 1025.1 0.2 12.9 23.3 30.9 80.3 64.8 219.6
08/05 01:30 5.8 75 5.38 1.7 9 11 1025.3 0.2 13.0 23.4 31.0 80.7 65.3 221.2
08/05 01:20 5.5 76 5.34 1.6 11 11 1025.3 0.2 13.0 23.4 31.0 80.6 65.0 220.2
08/05 01:10 5.5 74 5.2 1.2 9 9 1025.3 0.2 12.6 23.2 30.4 79.1 63.2 213.8
08/05 01:00 6.3 72 5.33 1.6 11 13 1025.5 0.2 12.9 23.2 30.6 79.7 64.2 217.6
08/05 00:50 6.3 72 5.33 1.6 13 13 1025.5 0.2 12.9 23.2 30.6 79.7 64.2 217.6
08/05 00:40 6.3 72 5.33 1.6 13 15 1025.5 0.2 12.9 23.2 30.6 79.7 64.2 217.6
08/05 00:20 6.5 70 5.25 1.4 13 13 1025.6 0.2 12.7 23.0 30.2 78.6 63.1 213.4
08/05 00:10 6.5 71 5.33 1.6 11 13 1025.5 0.2 12.9 23.1 30.5 79.5 64.1 217.0
08/05 00:00 6.2 72 5.3 1.5 11 13 1025.6 0.2 12.8 23.1 30.5 79.5 63.9 216.5
07/05 23:50 6.4 70 5.22 1.3 9 11 1025.6 0.2 12.7 23.0 30.2 78.4 62.7 212.3
07/05 23:40 6.4 70 5.22 1.3 11 13 1025.7 0.2 12.7 23.0 30.2 78.4 62.8 212.4
07/05 23:30 6.3 70 5.18 1.2 9 13 1025.7 0.2 12.6 22.9 30.0 78.1 62.3 210.8
07/05 23:20 6.3 69 5.11 1 9 11 1025.7 0.2 12.4 22.8 29.8 77.4 61.4 207.7
07/05 23:10 6.5 69 5.18 1.2 11 11 1025.8 0.2 12.6 22.9 30.0 77.9 62.2 210.3
07/05 23:00 6.7 67 5.09 1 11 13 1025.8 0.2 12.4 22.7 29.6 76.8 60.9 205.7
07/05 22:50 7.1 66 5.15 1.2 11 11 1025.8 0.2 12.5 22.7 29.6 77.0 61.3 207.4
07/05 22:40 7.2 66 5.18 1.3 13 15 1025.8 0.2 12.5 22.7 29.7 77.2 61.6 208.5
07/05 22:30 7.3 65 5.14 1.2 13 17 1025.8 0.2 12.5 22.6 29.5 76.7 61.0 206.4
07/05 22:20 7.3 65 5.14 1.2 13 15 1025.8 0.2 12.5 22.6 29.5 76.7 61.0 206.4
07/05 22:10 7.3 65 5.14 1.2 13 15 1025.8 0.2 12.5 22.6 29.5 76.7 61.0 206.4
07/05 22:00 7.2 65 5.1 1.1 11 15 1025.8 0.2 12.4 22.6 29.4 76.4 60.6 204.9
07/05 21:50 7.2 65 5.1 1.1 11 11 1025.8 0.2 12.4 22.6 29.4 76.4 60.6 204.9
07/05 21:40 7.4 64 5.09 1 11 13 1025.7 0.2 12.3 22.5 29.3 76.1 60.3 203.9
07/05 21:30 7.6 64 5.16 1.2 11 15 1025.7 0.2 12.5 22.6 29.5 76.6 61.0 206.5
07/05 21:20 8.2 61 5.11 1.1 13 15 1025.6 0.2 12.4 22.3 29.1 75.6 60.0 202.8
07/05 21:10 8.4 60 5.09 1.1 11 13 1025.6 0.2 12.3 22.3 28.9 75.2 59.5 201.4
07/05 21:00 8.7 59 5.1 1.1 17 20 1025.5 0.2 12.3 22.2 28.9 75.0 59.4 201.0
07/05 20:50 8.7 59 5.1 1.1 17 20 1025.3 0.2 12.3 22.2 28.9 75.0 59.4 201.0
07/05 20:40 8.6 58 4.99 0.8 15 19 1025.5 0.2 12.1 22.1 28.5 74.0 58.2 196.5
07/05 20:30 9.1 55 4.88 0.6 15 20 1025.3 0.2 11.8 21.8 27.9 72.4 56.4 190.5
07/05 20:20 9.3 55 4.94 0.7 17 19 1025.2 0.2 12.0 21.8 28.0 72.8 57.0 192.6
07/05 20:10 8.9 56 4.91 0.6 15 17 1025.2 0.2 11.9 21.9 28.1 72.9 56.9 192.2
07/05 20:00 8.7 57 4.93 0.7 15 19 1025.3 0.2 12.0 21.9 28.2 73.3 57.3 193.6
07/05 19:50 8.8 56 4.88 0.5 17 20 1025.1 0.2 11.9 21.8 28.0 72.6 56.6 191.2

Last Refresh: 08-May-2026 12:07:19

Bureau of Meteorology